sensor_id;sensor_type;location;lat;lon;timestamp;pressure;altitude;pressure_sealevel;temperature;humidity
15817;BME280;8009;50.070;8.232;2023-02-21T00:01:04;100476.47;;;7.88;69.76
15817;BME280;8009;50.070;8.232;2023-02-21T00:03:44;100484.34;;;7.91;69.54
15817;BME280;8009;50.070;8.232;2023-02-21T00:09:27;100488.31;;;8.00;69.68
15817;BME280;8009;50.070;8.232;2023-02-21T00:12:10;100489.72;;;7.60;70.58
15817;BME280;8009;50.070;8.232;2023-02-21T00:14:51;100474.88;;;8.00;70.07
15817;BME280;8009;50.070;8.232;2023-02-21T00:17:32;100473.16;;;7.99;70.63
15817;BME280;8009;50.070;8.232;2023-02-21T00:20:12;100475.06;;;7.65;70.80
15817;BME280;8009;50.070;8.232;2023-02-21T00:22:55;100476.47;;;7.72;70.71
15817;BME280;8009;50.070;8.232;2023-02-21T00:25:36;100467.69;;;7.69;70.87
15817;BME280;8009;50.070;8.232;2023-02-21T00:28:20;100466.19;;;7.47;71.05
15817;BME280;8009;50.070;8.232;2023-02-21T00:31:00;100465.97;;;7.68;70.52
15817;BME280;8009;50.070;8.232;2023-02-21T00:33:41;100466.41;;;7.60;70.45
15817;BME280;8009;50.070;8.232;2023-02-21T01:01:55;100453.56;;;7.81;70.67
15817;BME280;8009;50.070;8.232;2023-02-21T01:04:35;100454.25;;;7.85;70.69
15817;BME280;8009;50.070;8.232;2023-02-21T01:07:16;100455.53;;;7.93;69.93
15817;BME280;8009;50.070;8.232;2023-02-21T01:09:57;100458.50;;;7.73;70.13
15817;BME280;8009;50.070;8.232;2023-02-21T01:12:38;100465.59;;;7.74;70.75
15817;BME280;8009;50.070;8.232;2023-02-21T01:15:19;100465.72;;;7.72;70.72
15817;BME280;8009;50.070;8.232;2023-02-21T01:18:02;100456.41;;;7.78;70.58
15817;BME280;8009;50.070;8.232;2023-02-21T01:20:45;100458.25;;;7.62;70.83
15817;BME280;8009;50.070;8.232;2023-02-21T01:23:26;100463.88;;;7.41;71.33
15817;BME280;8009;50.070;8.232;2023-02-21T01:26:08;100468.22;;;7.60;71.03
15817;BME280;8009;50.070;8.232;2023-02-21T01:28:49;100469.84;;;7.46;71.28
15817;BME280;8009;50.070;8.232;2023-02-21T01:31:30;100474.03;;;7.52;71.03
15817;BME280;8009;50.070;8.232;2023-02-21T01:34:13;100485.53;;;7.38;71.29
15817;BME280;8009;50.070;8.232;2023-02-21T01:36:54;100482.78;;;7.55;71.28
15817;BME280;8009;50.070;8.232;2023-02-21T01:39:35;100479.00;;;7.26;72.01
15817;BME280;8009;50.070;8.232;2023-02-21T01:42:15;100482.03;;;7.36;71.28
15817;BME280;8009;50.070;8.232;2023-02-21T01:45:41;100474.69;;;7.40;71.33
15817;BME280;8009;50.070;8.232;2023-02-21T01:48:23;100470.09;;;7.42;71.35
15817;BME280;8009;50.070;8.232;2023-02-21T01:51:09;100458.13;;;7.47;70.83
15817;BME280;8009;50.070;8.232;2023-02-21T01:53:52;100461.59;;;7.18;72.64
15817;BME280;8009;50.070;8.232;2023-02-21T01:56:34;100465.16;;;7.34;71.23
15817;BME280;8009;50.070;8.232;2023-02-21T01:59:28;100461.66;;;7.16;72.05
15817;BME280;8009;50.070;8.232;2023-02-21T02:02:13;100455.97;;;7.22;71.63
15817;BME280;8009;50.070;8.232;2023-02-21T02:04:56;100451.88;;;7.31;72.09
15817;BME280;8009;50.070;8.232;2023-02-21T02:07:41;100447.88;;;7.06;72.70
15817;BME280;8009;50.070;8.232;2023-02-21T02:13:54;100445.28;;;7.21;72.31
15817;BME280;8009;50.070;8.232;2023-02-21T03:07:27;100450.91;;;6.14;75.18
15817;BME280;8009;50.070;8.232;2023-02-21T03:10:09;100454.88;;;6.24;74.57
15817;BME280;8009;50.070;8.232;2023-02-21T03:25:39;100456.06;;;6.53;73.65
15817;BME280;8009;50.070;8.232;2023-02-21T03:28:09;100453.38;;;6.35;74.40
15817;BME280;8009;50.070;8.232;2023-02-21T03:30:38;100448.75;;;6.56;74.06
15817;BME280;8009;50.070;8.232;2023-02-21T03:33:08;100444.69;;;6.13;74.94
15817;BME280;8009;50.070;8.232;2023-02-21T03:35:36;100441.56;;;6.22;74.99
15817;BME280;8009;50.070;8.232;2023-02-21T03:38:04;100445.66;;;6.47;73.85
15817;BME280;8009;50.070;8.232;2023-02-21T03:40:33;100448.88;;;6.36;74.11
15817;BME280;8009;50.070;8.232;2023-02-21T03:43:05;100444.78;;;6.46;74.03
15817;BME280;8009;50.070;8.232;2023-02-21T03:45:34;100434.63;;;6.53;74.06
15817;BME280;8009;50.070;8.232;2023-02-21T03:48:04;100423.00;;;6.35;74.31
15817;BME280;8009;50.070;8.232;2023-02-21T03:50:33;100433.09;;;6.65;73.42
15817;BME280;8009;50.070;8.232;2023-02-21T03:53:01;100427.59;;;6.50;73.61
15817;BME280;8009;50.070;8.232;2023-02-21T03:55:30;100438.38;;;6.31;74.43
15817;BME280;8009;50.070;8.232;2023-02-21T03:58:00;100434.59;;;6.35;74.42
15817;BME280;8009;50.070;8.232;2023-02-21T04:00:34;100432.94;;;6.33;74.45
15817;BME280;8009;50.070;8.232;2023-02-21T04:03:02;100429.56;;;6.47;74.03
15817;BME280;8009;50.070;8.232;2023-02-21T04:05:31;100435.00;;;6.45;74.11
15817;BME280;8009;50.070;8.232;2023-02-21T04:07:59;100440.38;;;6.45;74.00
15817;BME280;8009;50.070;8.232;2023-02-21T04:10:27;100441.53;;;6.40;73.87
15817;BME280;8009;50.070;8.232;2023-02-21T04:12:56;100444.69;;;6.48;73.65
15817;BME280;8009;50.070;8.232;2023-02-21T04:15:24;100443.44;;;6.38;74.10
15817;BME280;8009;50.070;8.232;2023-02-21T04:17:57;100440.19;;;6.14;74.85
15817;BME280;8009;50.070;8.232;2023-02-21T04:21:05;100445.41;;;6.34;74.05
15817;BME280;8009;50.070;8.232;2023-02-21T04:29:55;100442.50;;;5.66;76.62
15817;BME280;8009;50.070;8.232;2023-02-21T04:32:23;100435.84;;;5.18;78.80
15817;BME280;8009;50.070;8.232;2023-02-21T04:34:54;100439.09;;;5.81;76.41
15817;BME280;8009;50.070;8.232;2023-02-21T04:37:22;100436.25;;;6.21;74.48
15817;BME280;8009;50.070;8.232;2023-02-21T04:39:51;100438.75;;;6.06;75.25
15817;BME280;8009;50.070;8.232;2023-02-21T04:42:21;100446.06;;;5.67;76.41
15817;BME280;8009;50.070;8.232;2023-02-21T04:44:53;100433.72;;;5.81;76.30
15817;BME280;8009;50.070;8.232;2023-02-21T04:47:21;100433.34;;;5.89;75.72
15817;BME280;8009;50.070;8.232;2023-02-21T04:49:50;100434.19;;;6.08;74.79
15817;BME280;8009;50.070;8.232;2023-02-21T04:52:23;100436.66;;;5.39;77.47
15817;BME280;8009;50.070;8.232;2023-02-21T04:54:52;100428.84;;;5.53;76.84
15817;BME280;8009;50.070;8.232;2023-02-21T04:57:20;100433.69;;;5.45;77.32
15817;BME280;8009;50.070;8.232;2023-02-21T04:59:55;100421.88;;;5.49;77.28
15817;BME280;8009;50.070;8.232;2023-02-21T05:02:23;100422.09;;;5.63;76.75
15817;BME280;8009;50.070;8.232;2023-02-21T05:05:05;100420.59;;;5.20;78.60
15817;BME280;8009;50.070;8.232;2023-02-21T05:07:35;100419.66;;;5.21;78.01
15817;BME280;8009;50.070;8.232;2023-02-21T05:10:04;100411.75;;;5.56;77.41
15817;BME280;8009;50.070;8.232;2023-02-21T05:12:37;100415.97;;;5.79;76.40
15817;BME280;8009;50.070;8.232;2023-02-21T05:15:08;100424.19;;;5.57;76.90
15817;BME280;8009;50.070;8.232;2023-02-21T05:17:36;100416.94;;;5.78;76.24
15817;BME280;8009;50.070;8.232;2023-02-21T05:20:13;100425.53;;;5.84;76.03
15817;BME280;8009;50.070;8.232;2023-02-21T05:22:44;100419.06;;;5.89;75.67
15817;BME280;8009;50.070;8.232;2023-02-21T05:25:16;100416.34;;;5.71;76.14
15817;BME280;8009;50.070;8.232;2023-02-21T05:27:45;100417.16;;;5.73;75.85
15817;BME280;8009;50.070;8.232;2023-02-21T05:36:48;100412.78;;;5.53;77.52
15817;BME280;8009;50.070;8.232;2023-02-21T05:39:19;100415.41;;;5.72;76.58
15817;BME280;8009;50.070;8.232;2023-02-21T05:41:50;100412.47;;;5.22;78.24
15817;BME280;8009;50.070;8.232;2023-02-21T05:44:18;100421.75;;;5.33;77.95
15817;BME280;8009;50.070;8.232;2023-02-21T05:46:46;100421.81;;;5.51;77.15
15817;BME280;8009;50.070;8.232;2023-02-21T05:49:14;100417.22;;;5.72;76.48
15817;BME280;8009;50.070;8.232;2023-02-21T06:14:04;100435.16;;;5.89;75.70
15817;BME280;8009;50.070;8.232;2023-02-21T06:16:34;100431.22;;;5.59;75.95
15817;BME280;8009;50.070;8.232;2023-02-21T06:25:24;100438.16;;;5.63;76.32
15817;BME280;8009;50.070;8.232;2023-02-21T07:21:33;100440.03;;;5.99;74.97
15817;BME280;8009;50.070;8.232;2023-02-21T07:27:34;100437.13;;;6.04;74.83
15817;BME280;8009;50.070;8.232;2023-02-21T07:33:13;100434.72;;;5.98;76.01
15817;BME280;8009;50.070;8.232;2023-02-21T07:35:42;100430.03;;;6.03;76.49
15817;BME280;8009;50.070;8.232;2023-02-21T07:38:18;100437.34;;;6.17;75.92
15817;BME280;8009;50.070;8.232;2023-02-21T07:40:47;100432.09;;;6.15;76.50
15817;BME280;8009;50.070;8.232;2023-02-21T07:43:16;100435.78;;;6.13;76.29
15817;BME280;8009;50.070;8.232;2023-02-21T07:45:44;100435.09;;;6.26;75.83
15817;BME280;8009;50.070;8.232;2023-02-21T07:48:12;100430.97;;;6.19;76.62
15817;BME280;8009;50.070;8.232;2023-02-21T07:50:44;100435.00;;;6.45;76.07
15817;BME280;8009;50.070;8.232;2023-02-21T07:53:16;100440.59;;;6.58;75.61
15817;BME280;8009;50.070;8.232;2023-02-21T07:55:44;100437.81;;;6.77;75.15
15817;BME280;8009;50.070;8.232;2023-02-21T07:58:12;100441.44;;;6.76;75.12
15817;BME280;8009;50.070;8.232;2023-02-21T08:00:41;100440.81;;;6.71;75.33
15817;BME280;8009;50.070;8.232;2023-02-21T08:03:11;100436.84;;;6.78;75.26
15817;BME280;8009;50.070;8.232;2023-02-21T08:05:54;100448.47;;;6.78;75.43
15817;BME280;8009;50.070;8.232;2023-02-21T08:08:25;100443.53;;;6.53;76.66
15817;BME280;8009;50.070;8.232;2023-02-21T08:10:53;100442.38;;;6.75;75.85
15817;BME280;8009;50.070;8.232;2023-02-21T08:13:22;100436.75;;;6.97;74.98
15817;BME280;8009;50.070;8.232;2023-02-21T08:15:50;100435.88;;;6.96;75.61
15817;BME280;8009;50.070;8.232;2023-02-21T08:18:20;100435.00;;;6.96;75.33
15817;BME280;8009;50.070;8.232;2023-02-21T08:20:49;100437.75;;;6.94;75.97
15817;BME280;8009;50.070;8.232;2023-02-21T08:23:19;100430.19;;;7.02;74.97
15817;BME280;8009;50.070;8.232;2023-02-21T08:25:50;100432.34;;;7.45;73.28
15817;BME280;8009;50.070;8.232;2023-02-21T08:28:19;100427.38;;;7.21;74.33
15817;BME280;8009;50.070;8.232;2023-02-21T08:30:47;100430.78;;;7.41;74.17
15817;BME280;8009;50.070;8.232;2023-02-21T08:33:17;100434.75;;;7.00;74.87
15817;BME280;8009;50.070;8.232;2023-02-21T08:36:01;100424.59;;;7.39;74.50
15817;BME280;8009;50.070;8.232;2023-02-21T08:38:58;100425.28;;;7.58;73.09
15817;BME280;8009;50.070;8.232;2023-02-21T08:41:36;100412.81;;;7.73;73.38
15817;BME280;8009;50.070;8.232;2023-02-21T08:44:06;100416.28;;;7.75;72.85
15817;BME280;8009;50.070;8.232;2023-02-21T08:46:35;100414.38;;;7.77;72.86
15817;BME280;8009;50.070;8.232;2023-02-21T08:49:04;100418.19;;;7.57;73.77
15817;BME280;8009;50.070;8.232;2023-02-21T08:51:33;100412.72;;;7.90;72.78
15817;BME280;8009;50.070;8.232;2023-02-21T08:54:02;100415.63;;;8.17;71.93
15817;BME280;8009;50.070;8.232;2023-02-21T08:56:30;100415.28;;;8.07;72.18
15817;BME280;8009;50.070;8.232;2023-02-21T08:59:02;100411.81;;;7.90;73.04
15817;BME280;8009;50.070;8.232;2023-02-21T09:01:33;100414.06;;;7.97;72.11
15817;BME280;8009;50.070;8.232;2023-02-21T09:04:03;100416.88;;;7.80;72.99
15817;BME280;8009;50.070;8.232;2023-02-21T09:06:31;100414.09;;;7.81;73.28
15817;BME280;8009;50.070;8.232;2023-02-21T09:09:00;100415.97;;;8.11;72.57
15817;BME280;8009;50.070;8.232;2023-02-21T09:11:28;100418.78;;;7.94;72.83
15817;BME280;8009;50.070;8.232;2023-02-21T09:13:56;100410.16;;;8.03;73.07
15817;BME280;8009;50.070;8.232;2023-02-21T09:16:27;100411.13;;;8.02;72.27
15817;BME280;8009;50.070;8.232;2023-02-21T09:18:57;100410.63;;;7.95;72.81
15817;BME280;8009;50.070;8.232;2023-02-21T09:21:26;100411.03;;;8.03;72.75
15817;BME280;8009;50.070;8.232;2023-02-21T09:23:55;100406.28;;;8.23;71.97
15817;BME280;8009;50.070;8.232;2023-02-21T09:26:25;100405.41;;;8.38;71.51
15817;BME280;8009;50.070;8.232;2023-02-21T09:28:56;100399.00;;;8.25;72.11
15817;BME280;8009;50.070;8.232;2023-02-21T09:31:28;100396.56;;;8.36;71.44
15817;BME280;8009;50.070;8.232;2023-02-21T09:33:56;100402.72;;;8.38;71.43
15817;BME280;8009;50.070;8.232;2023-02-21T09:36:25;100396.41;;;8.53;70.66
15817;BME280;8009;50.070;8.232;2023-02-21T09:38:53;100401.81;;;8.68;70.53
15817;BME280;8009;50.070;8.232;2023-02-21T09:41:21;100397.88;;;8.59;70.67
15817;BME280;8009;50.070;8.232;2023-02-21T09:43:52;100401.03;;;8.66;70.78
15817;BME280;8009;50.070;8.232;2023-02-21T09:46:33;100401.81;;;8.68;71.06
15817;BME280;8009;50.070;8.232;2023-02-21T09:52:20;100390.56;;;9.04;69.43
15817;BME280;8009;50.070;8.232;2023-02-21T09:54:56;100391.44;;;8.90;69.91
15817;BME280;8009;50.070;8.232;2023-02-21T09:57:25;100393.38;;;8.88;70.08
15817;BME280;8009;50.070;8.232;2023-02-21T09:59:53;100407.59;;;8.76;69.99
15817;BME280;8009;50.070;8.232;2023-02-21T10:02:36;100395.13;;;8.89;70.13
15817;BME280;8009;50.070;8.232;2023-02-21T10:05:17;100391.44;;;9.19;69.41
15817;BME280;8009;50.070;8.232;2023-02-21T10:08:22;100397.59;;;9.21;68.91
15817;BME280;8009;50.070;8.232;2023-02-21T10:10:57;100398.91;;;9.42;68.34
15817;BME280;8009;50.070;8.232;2023-02-21T10:13:35;100404.72;;;9.22;69.56
15817;BME280;8009;50.070;8.232;2023-02-21T10:16:10;100397.19;;;9.41;68.53
15817;BME280;8009;50.070;8.232;2023-02-21T10:18:46;100393.47;;;9.57;68.11
15817;BME280;8009;50.070;8.232;2023-02-21T10:21:20;100400.84;;;9.40;69.34
15817;BME280;8009;50.070;8.232;2023-02-21T10:23:51;100399.03;;;9.26;69.37
15817;BME280;8009;50.070;8.232;2023-02-21T10:26:25;100391.06;;;9.66;68.44
15817;BME280;8009;50.070;8.232;2023-02-21T10:28:55;100397.28;;;9.81;67.08
15817;BME280;8009;50.070;8.232;2023-02-21T10:31:29;100390.94;;;9.95;67.13
15817;BME280;8009;50.070;8.232;2023-02-21T10:34:02;100395.28;;;9.97;67.15
15817;BME280;8009;50.070;8.232;2023-02-21T10:36:33;100395.91;;;9.88;67.69
15817;BME280;8009;50.070;8.232;2023-02-21T10:39:05;100397.78;;;10.00;67.50
15817;BME280;8009;50.070;8.232;2023-02-21T10:41:39;100382.91;;;10.08;66.76
15817;BME280;8009;50.070;8.232;2023-02-21T10:44:24;100389.06;;;10.10;66.70
15817;BME280;8009;50.070;8.232;2023-02-21T10:47:06;100398.31;;;10.33;66.06
15817;BME280;8009;50.070;8.232;2023-02-21T10:50:00;100389.38;;;10.32;66.03
15817;BME280;8009;50.070;8.232;2023-02-21T10:52:58;100385.81;;;10.44;65.90
15817;BME280;8009;50.070;8.232;2023-02-21T10:58:54;100386.13;;;10.40;66.19
15817;BME280;8009;50.070;8.232;2023-02-21T11:01:35;100380.00;;;10.63;65.36
15817;BME280;8009;50.070;8.232;2023-02-21T11:04:29;100373.97;;;10.72;65.10
15817;BME280;8009;50.070;8.232;2023-02-21T11:07:03;100378.41;;;10.61;66.09
15817;BME280;8009;50.070;8.232;2023-02-21T11:09:37;100365.63;;;10.76;65.16
15817;BME280;8009;50.070;8.232;2023-02-21T11:18:16;100353.41;;;11.08;64.38
15817;BME280;8009;50.070;8.232;2023-02-21T11:20:45;100348.66;;;11.12;64.05
15817;BME280;8009;50.070;8.232;2023-02-21T11:23:25;100347.47;;;11.03;64.02
15817;BME280;8009;50.070;8.232;2023-02-21T11:25:59;100338.13;;;11.20;63.31
15817;BME280;8009;50.070;8.232;2023-02-21T11:28:38;100339.69;;;10.98;64.41
15817;BME280;8009;50.070;8.232;2023-02-21T11:31:14;100334.41;;;10.97;64.41
15817;BME280;8009;50.070;8.232;2023-02-21T11:33:50;100331.81;;;10.95;64.71
15817;BME280;8009;50.070;8.232;2023-02-21T11:36:26;100327.28;;;11.33;63.67
15817;BME280;8009;50.070;8.232;2023-02-21T11:39:04;100328.41;;;11.54;63.41
15817;BME280;8009;50.070;8.232;2023-02-21T11:41:43;100326.13;;;11.48;63.77
15817;BME280;8009;50.070;8.232;2023-02-21T11:44:24;100320.97;;;11.69;62.83
15817;BME280;8009;50.070;8.232;2023-02-21T11:47:05;100315.34;;;11.72;62.72
15817;BME280;8009;50.070;8.232;2023-02-21T11:49:42;100312.66;;;11.96;62.61
15817;BME280;8009;50.070;8.232;2023-02-21T11:52:19;100299.56;;;11.90;62.51
15817;BME280;8009;50.070;8.232;2023-02-21T11:54:52;100306.13;;;11.75;62.58
15817;BME280;8009;50.070;8.232;2023-02-21T11:57:25;100298.09;;;11.86;62.12
15817;BME280;8009;50.070;8.232;2023-02-21T12:00:06;100289.56;;;12.03;61.96
15817;BME280;8009;50.070;8.232;2023-02-21T12:02:50;100281.22;;;12.17;61.77
15817;BME280;8009;50.070;8.232;2023-02-21T12:08:34;100269.59;;;11.93;62.35
15817;BME280;8009;50.070;8.232;2023-02-21T12:11:19;100268.53;;;12.07;62.33
15817;BME280;8009;50.070;8.232;2023-02-21T12:13:59;100253.50;;;12.03;62.00
15817;BME280;8009;50.070;8.232;2023-02-21T12:16:49;100259.44;;;12.19;61.51
15817;BME280;8009;50.070;8.232;2023-02-21T12:19:43;100258.31;;;12.10;62.08
15817;BME280;8009;50.070;8.232;2023-02-21T12:22:22;100247.16;;;12.26;61.25
15817;BME280;8009;50.070;8.232;2023-02-21T12:25:05;100255.53;;;12.46;60.70
15817;BME280;8009;50.070;8.232;2023-02-21T12:27:44;100244.56;;;12.36;61.32
15817;BME280;8009;50.070;8.232;2023-02-21T12:30:31;100246.41;;;12.35;61.30
15817;BME280;8009;50.070;8.232;2023-02-21T12:33:16;100243.97;;;12.55;61.19
15817;BME280;8009;50.070;8.232;2023-02-21T12:36:03;100242.50;;;12.62;61.05
15817;BME280;8009;50.070;8.232;2023-02-21T12:38:46;100240.78;;;12.50;62.35
15817;BME280;8009;50.070;8.232;2023-02-21T12:41:45;100239.66;;;12.52;61.14
15817;BME280;8009;50.070;8.232;2023-02-21T12:44:21;100228.94;;;12.62;60.84
15817;BME280;8009;50.070;8.232;2023-02-21T12:46:55;100232.16;;;12.56;61.20
15817;BME280;8009;50.070;8.232;2023-02-21T12:49:29;100233.63;;;12.37;61.79
15817;BME280;8009;50.070;8.232;2023-02-21T12:52:00;100225.88;;;12.44;61.79
15817;BME280;8009;50.070;8.232;2023-02-21T12:54:38;100221.94;;;12.59;60.78
15817;BME280;8009;50.070;8.232;2023-02-21T12:57:13;100220.44;;;12.55;61.52
15817;BME280;8009;50.070;8.232;2023-02-21T12:59:53;100213.81;;;12.59;61.60
15817;BME280;8009;50.070;8.232;2023-02-21T13:02:32;100211.34;;;12.79;60.70
15817;BME280;8009;50.070;8.232;2023-02-21T13:05:08;100199.75;;;12.54;61.73
15817;BME280;8009;50.070;8.232;2023-02-21T13:07:42;100204.44;;;12.75;60.95
15817;BME280;8009;50.070;8.232;2023-02-21T13:10:17;100189.00;;;12.98;60.13
15817;BME280;8009;50.070;8.232;2023-02-21T13:12:49;100188.66;;;12.91;60.51
15817;BME280;8009;50.070;8.232;2023-02-21T13:15:24;100180.13;;;12.96;60.46
15817;BME280;8009;50.070;8.232;2023-02-21T13:17:57;100184.84;;;12.93;60.93
15817;BME280;8009;50.070;8.232;2023-02-21T13:20:29;100179.41;;;12.93;60.76
15817;BME280;8009;50.070;8.232;2023-02-21T13:26:21;100171.22;;;13.05;60.59
15817;BME280;8009;50.070;8.232;2023-02-21T13:28:53;100170.88;;;13.09;61.13
15817;BME280;8009;50.070;8.232;2023-02-21T13:31:26;100167.97;;;12.79;61.47
15817;BME280;8009;50.070;8.232;2023-02-21T13:34:05;100164.28;;;12.80;61.17
15817;BME280;8009;50.070;8.232;2023-02-21T13:36:41;100162.72;;;13.09;60.14
15817;BME280;8009;50.070;8.232;2023-02-21T13:39:16;100155.19;;;13.24;60.16
15817;BME280;8009;50.070;8.232;2023-02-21T13:41:48;100147.94;;;13.13;60.74
15817;BME280;8009;50.070;8.232;2023-02-21T13:44:24;100152.09;;;13.17;60.80
15817;BME280;8009;50.070;8.232;2023-02-21T13:47:15;100148.78;;;13.25;60.30
15817;BME280;8009;50.070;8.232;2023-02-21T13:49:49;100145.16;;;13.36;60.47
15817;BME280;8009;50.070;8.232;2023-02-21T13:52:49;100137.16;;;13.55;59.82
15817;BME280;8009;50.070;8.232;2023-02-21T13:55:26;100129.81;;;13.46;60.35
15817;BME280;8009;50.070;8.232;2023-02-21T13:58:29;100128.34;;;13.10;61.33
15817;BME280;8009;50.070;8.232;2023-02-21T14:01:17;100129.94;;;13.45;59.61
15817;BME280;8009;50.070;8.232;2023-02-21T14:03:50;100122.66;;;13.45;59.98
15817;BME280;8009;50.070;8.232;2023-02-21T14:06:33;100120.66;;;13.26;60.47
15817;BME280;8009;50.070;8.232;2023-02-21T14:09:05;100113.22;;;13.39;60.44
15817;BME280;8009;50.070;8.232;2023-02-21T14:11:43;100113.53;;;13.46;60.30
15817;BME280;8009;50.070;8.232;2023-02-21T14:14:24;100104.94;;;13.41;60.47
15817;BME280;8009;50.070;8.232;2023-02-21T14:16:58;100105.00;;;13.51;59.90
15817;BME280;8009;50.070;8.232;2023-02-21T14:19:36;100107.66;;;13.41;60.64
15817;BME280;8009;50.070;8.232;2023-02-21T14:22:11;100110.56;;;13.49;60.59
15817;BME280;8009;50.070;8.232;2023-02-21T14:24:42;100107.25;;;13.46;60.69
15817;BME280;8009;50.070;8.232;2023-02-21T14:27:31;100105.31;;;13.57;60.25
15817;BME280;8009;50.070;8.232;2023-02-21T14:30:24;100098.47;;;13.32;61.28
15817;BME280;8009;50.070;8.232;2023-02-21T14:32:54;100101.72;;;13.47;60.83
15817;BME280;8009;50.070;8.232;2023-02-21T14:35:31;100107.19;;;13.57;60.21
15817;BME280;8009;50.070;8.232;2023-02-21T14:38:02;100100.16;;;13.54;60.48
15817;BME280;8009;50.070;8.232;2023-02-21T14:40:41;100097.75;;;13.51;60.88
15817;BME280;8009;50.070;8.232;2023-02-21T14:43:26;100096.78;;;13.62;60.31
15817;BME280;8009;50.070;8.232;2023-02-21T14:46:15;100095.91;;;13.61;60.19
15817;BME280;8009;50.070;8.232;2023-02-21T14:48:58;100087.75;;;13.52;60.71
15817;BME280;8009;50.070;8.232;2023-02-21T14:55:15;100080.88;;;13.48;61.27
15817;BME280;8009;50.070;8.232;2023-02-21T14:58:22;100078.25;;;13.46;60.91
15817;BME280;8009;50.070;8.232;2023-02-21T15:01:03;100076.81;;;13.42;61.25
15817;BME280;8009;50.070;8.232;2023-02-21T15:03:36;100077.59;;;13.54;60.75
15817;BME280;8009;50.070;8.232;2023-02-21T15:06:11;100067.31;;;13.48;60.37
15817;BME280;8009;50.070;8.232;2023-02-21T15:08:46;100065.50;;;13.37;61.10
15817;BME280;8009;50.070;8.232;2023-02-21T15:11:20;100064.84;;;13.45;60.53
15817;BME280;8009;50.070;8.232;2023-02-21T15:14:11;100071.72;;;13.49;60.66
15817;BME280;8009;50.070;8.232;2023-02-21T15:16:43;100062.00;;;13.25;61.83
15817;BME280;8009;50.070;8.232;2023-02-21T15:19:20;100060.28;;;13.24;61.78
15817;BME280;8009;50.070;8.232;2023-02-21T15:22:05;100051.94;;;13.37;61.15
15817;BME280;8009;50.070;8.232;2023-02-21T15:24:36;100057.63;;;13.34;61.57
15817;BME280;8009;50.070;8.232;2023-02-21T15:27:08;100055.78;;;13.34;61.30
15817;BME280;8009;50.070;8.232;2023-02-21T15:29:37;100054.91;;;13.34;61.56
15817;BME280;8009;50.070;8.232;2023-02-21T15:32:06;100052.47;;;13.31;61.46
15817;BME280;8009;50.070;8.232;2023-02-21T15:34:40;100057.78;;;13.32;61.66
15817;BME280;8009;50.070;8.232;2023-02-21T15:37:15;100050.25;;;13.36;61.32
15817;BME280;8009;50.070;8.232;2023-02-21T15:39:49;100049.53;;;13.23;61.55
15817;BME280;8009;50.070;8.232;2023-02-21T15:42:19;100054.91;;;13.13;61.84
15817;BME280;8009;50.070;8.232;2023-02-21T15:44:50;100045.69;;;13.04;62.25
15817;BME280;8009;50.070;8.232;2023-02-21T15:47:21;100051.94;;;13.05;62.25
15817;BME280;8009;50.070;8.232;2023-02-21T15:49:58;100043.09;;;13.03;62.18
15817;BME280;8009;50.070;8.232;2023-02-21T15:52:29;100044.41;;;13.08;61.57
15817;BME280;8009;50.070;8.232;2023-02-21T15:55:28;100039.50;;;13.13;61.69
15817;BME280;8009;50.070;8.232;2023-02-21T15:57:58;100040.41;;;13.03;62.28
15817;BME280;8009;50.070;8.232;2023-02-21T16:00:28;100041.59;;;13.10;61.75
15817;BME280;8009;50.070;8.232;2023-02-21T16:03:28;100043.25;;;13.01;62.51
15817;BME280;8009;50.070;8.232;2023-02-21T16:06:10;100040.41;;;13.03;61.99
15817;BME280;8009;50.070;8.232;2023-02-21T16:08:51;100028.50;;;12.94;62.63
15817;BME280;8009;50.070;8.232;2023-02-21T16:11:36;100040.84;;;12.87;62.66
15817;BME280;8009;50.070;8.232;2023-02-21T16:14:14;100035.94;;;12.81;63.06
15817;BME280;8009;50.070;8.232;2023-02-21T16:16:42;100024.50;;;12.77;62.89
15817;BME280;8009;50.070;8.232;2023-02-21T16:19:11;100027.44;;;12.74;63.08
15817;BME280;8009;50.070;8.232;2023-02-21T16:21:39;100026.13;;;12.68;63.57
15817;BME280;8009;50.070;8.232;2023-02-21T16:24:26;100024.28;;;12.69;63.70
15817;BME280;8009;50.070;8.232;2023-02-21T16:27:08;100018.75;;;12.71;63.27
15817;BME280;8009;50.070;8.232;2023-02-21T16:29:37;100032.66;;;12.66;63.42
15817;BME280;8009;50.070;8.232;2023-02-21T16:32:14;100026.34;;;12.44;64.90
15817;BME280;8009;50.070;8.232;2023-02-21T16:34:46;100027.31;;;12.43;64.77
15817;BME280;8009;50.070;8.232;2023-02-21T16:37:14;100016.59;;;12.53;64.04
15817;BME280;8009;50.070;8.232;2023-02-21T16:39:43;100017.47;;;12.42;64.59
15817;BME280;8009;50.070;8.232;2023-02-21T16:42:14;100016.00;;;12.38;64.60
15817;BME280;8009;50.070;8.232;2023-02-21T16:44:43;100027.34;;;12.32;64.73
15817;BME280;8009;50.070;8.232;2023-02-21T16:47:12;100023.91;;;12.30;64.96
15817;BME280;8009;50.070;8.232;2023-02-21T16:49:41;100027.13;;;12.24;65.50
15817;BME280;8009;50.070;8.232;2023-02-21T16:52:13;100023.31;;;12.15;65.31
15817;BME280;8009;50.070;8.232;2023-02-21T16:54:42;100014.38;;;12.04;65.73
15817;BME280;8009;50.070;8.232;2023-02-21T16:57:14;100017.44;;;11.99;66.28
15817;BME280;8009;50.070;8.232;2023-02-21T16:59:42;100018.44;;;11.98;66.36
15817;BME280;8009;50.070;8.232;2023-02-21T17:02:13;100017.06;;;11.92;66.20
15817;BME280;8009;50.070;8.232;2023-02-21T17:04:41;100024.44;;;11.90;66.29
15817;BME280;8009;50.070;8.232;2023-02-21T17:07:09;100021.75;;;11.90;66.56
15817;BME280;8009;50.070;8.232;2023-02-21T17:09:39;100024.16;;;11.82;66.64
15817;BME280;8009;50.070;8.232;2023-02-21T17:12:07;100021.75;;;11.79;66.68
15817;BME280;8009;50.070;8.232;2023-02-21T17:14:38;100032.91;;;11.75;66.69
15817;BME280;8009;50.070;8.232;2023-02-21T17:17:06;100039.44;;;11.72;67.09
15817;BME280;8009;50.070;8.232;2023-02-21T17:19:35;100042.00;;;11.74;66.78
15817;BME280;8009;50.070;8.232;2023-02-21T17:22:03;100033.78;;;11.53;67.84
15817;BME280;8009;50.070;8.232;2023-02-21T17:24:31;100041.28;;;11.60;67.86
15817;BME280;8009;50.070;8.232;2023-02-21T17:27:00;100036.47;;;11.53;68.06
15817;BME280;8009;50.070;8.232;2023-02-21T17:29:28;100043.34;;;11.45;68.32